Rockledge, Florida
Current Conditions -  °F | °C
As of 5:58 PM on Friday 19 Dec 2014 (Local Time) from KCOF Reporting Station
Clear Clear  
Wind Chill: 64°   Ceiling: Unl
Heat Index: 64°   Visibility: 10mi
Dew Point: 56°   Wind: 6mph
Humidity: 78%   Direction: 30°NNE
Pressure: 30.08"   Gusts: NA
Location:  28.33°N, 80.73°W
Report Text: KCOF 192258Z AUTO 03005KT 10SM CLR 18/14 A3008 RMK AO2 SLP190 T01750136
Loading
Personal Weather Stations






























Interactive Weather Map New forecast layout! Learn more

10-Day Weather Forecast

Advertisements
Track Severe Weather on mobile